Aérodrome :
LOGIN :

S'inscrire | Disclaimer

   EN    FR    IT 

 










Légende :    VFR   VFR Marginal   IFR   IFR Intensif   IFR Très Intensif
Visi : 
Plafond : 
>= 8 km
>= 3000ft
5 à 8 km
1000 à 3000 ft
1500m à 5 km
500 à 1000 ft
800 à 1500m
200 à 500 ft
< 800m
< 200 ft
Symboles :   Orages  Brouillard  Fortes neiges  Fortes précipitations  Vent > 20 kt
SIGMETs :   Divers  Orages  Givrage  Turbulence  Onde Orograph.  Cendres Volcan.







- Altitude de l'aérodrome : 265 ft


ETSH - Holzdorf AB

DERNIER METAR :
  • 211720Z 24006KT 9999 BKN026 08/07 Q1023 RERA BLU BLU TEMPO WHT

METARs EXPIRÉS :
  • 211620Z 24006KT 9999 BKN026 08/07 Q1023 RERA BLU BLU TEMPO WHT
  • 211600Z 28006KT 9999 -RA BKN028 08/06 Q1023 RERA BLU BLU TEMPO WHT
  • 211545Z 28008KT 6000 RA BKN027 09/06 Q1023 WHT BLU TEMPO WHT
  • 211520Z 27011KT 9999 -RA BKN033 10/04 Q1023 BLU BLU

TAF TAF ETSH
Valide du 21 à 15h jusqu'au 22 à 00h UTC


211420Z 2115/2124 27010G20KT 9999 NSW BKN030 BKN100
TEMPO 2116/2120 27015G25KT 6000 -RA FEW010 BKN020
TEMPO 2120/2124 28015G25KT 4000 SHRA BKN010 BKN020
Pas de NOTAMs connus pour ce terrain.



MET'MAP, la Météo Aéronautique d'un coup d'oeil ! - Copyright ORBIFLY Décembre 2007 - Disclaimer

ORBIFLY MET'MAP TEAM :

Programmation & Développement : Alexandra Zaïnal
Conception & Développement : Baudouin d'Aumeries
Co-Programmation & Développement : Marc-Olivier Méhu
Soutien technique & logistique : Manuel Goepfert

Contact : metmap@orbifly.com




SOURCES & CREDITS :

   NOAA